Time;durP1;ratioP1;P1;durP2;ratioP2;P2;SDS_P1;SDS_P2;PMS_P1;PMS_P2;Temp;Humidity;BMP_temperature;BMP_pressure;BME280_temperature;BME280_humidity;BME280_pressure;Samples;Min_cycle;Max_cycle;Signal;HPM_P1;HPM_P2
2022/04/30 00:01:02;;;;;;;3.83;2.23;;;10.00;99.90;;;;;;5043219;28;20547;-77
2022/04/30 00:03:30;;;;;;;5.80;2.80;;;10.00;99.90;;;;;;5042461;28;20517;-77
2022/04/30 00:05:57;;;;;;;6.97;3.97;;;10.10;99.90;;;;;;5032683;28;20476;-77
2022/04/30 00:08:24;;;;;;;4.53;2.30;;;10.10;99.90;;;;;;5047277;28;20839;-77
2022/04/30 00:10:54;;;;;;;4.03;3.23;;;10.00;99.90;;;;;;5040890;28;20467;-77
2022/04/30 00:13:21;;;;;;;3.00;2.47;;;10.10;99.90;;;;;;5040689;28;20642;-77
2022/04/30 00:15:49;;;;;;;4.03;2.70;;;10.10;99.90;;;;;;5051926;28;20586;-77
2022/04/30 00:18:16;;;;;;;6.87;3.57;;;10.00;99.90;;;;;;5051434;28;20441;-77
2022/04/30 00:20:46;;;;;;;4.70;2.43;;;10.10;99.90;;;;;;5044493;28;20452;-77
2022/04/30 00:23:20;;;;;;;9.20;4.13;;;10.10;99.90;;;;;;5041129;28;21297;-77
2022/04/30 00:25:49;;;;;;;4.43;2.33;;;9.90;99.90;;;;;;5048474;28;20532;-77
2022/04/30 00:28:16;;;;;;;5.00;2.47;;;9.80;99.90;;;;;;5037746;28;20518;-77
2022/04/30 00:30:45;;;;;;;4.67;2.70;;;10.00;99.90;;;;;;5035198;28;20549;-77
2022/04/30 00:33:12;;;;;;;3.90;2.83;;;10.00;99.90;;;;;;5045918;28;20529;-76
2022/04/30 00:35:39;;;;;;;3.90;2.37;;;10.10;99.90;;;;;;5043411;28;20565;-77
2022/04/30 00:38:08;;;;;;;2.77;2.00;;;10.00;99.90;;;;;;5043142;28;20430;-77
2022/04/30 00:40:35;;;;;;;3.40;2.23;;;9.80;99.90;;;;;;5036919;28;20437;-77
2022/04/30 00:43:01;;;;;;;3.63;2.83;;;9.80;99.90;;;;;;5038609;28;20465;-78
2022/04/30 00:45:28;;;;;;;6.37;3.33;;;9.90;99.90;;;;;;5046436;28;20500;-77
2022/04/30 00:47:56;;;;;;;6.00;2.43;;;9.80;99.90;;;;;;5038320;28;20439;-77
2022/04/30 00:50:25;;;;;;;3.20;2.27;;;9.90;99.90;;;;;;5038364;28;20452;-77
2022/04/30 00:52:56;;;;;;;3.20;2.90;;;9.90;99.90;;;;;;5041699;28;20608;-77
2022/04/30 00:55:29;;;;;;;5.13;3.20;;;9.80;99.90;;;;;;5040494;28;20470;-77
2022/04/30 00:58:01;;;;;;;3.07;2.30;;;9.80;99.90;;;;;;5036689;28;20939;-77
2022/04/30 01:00:29;;;;;;;7.30;3.00;;;9.70;99.90;;;;;;5040309;28;20430;-77
2022/04/30 01:02:56;;;;;;;4.40;2.97;;;9.60;99.90;;;;;;5040228;28;20892;-77
2022/04/30 01:05:23;;;;;;;4.93;3.30;;;9.50;99.90;;;;;;5034798;28;21003;-77
2022/04/30 01:07:49;;;;;;;8.23;2.60;;;9.50;99.90;;;;;;5036745;28;20472;-77
2022/04/30 01:10:17;;;;;;;7.10;3.17;;;9.60;99.90;;;;;;5041016;28;20455;-77
2022/04/30 01:12:47;;;;;;;3.13;1.87;;;9.50;99.90;;;;;;5044291;28;20574;-77
2022/04/30 01:15:13;;;;;;;8.20;2.33;;;9.40;99.90;;;;;;5032272;28;20495;-77
2022/04/30 01:17:42;;;;;;;5.43;2.90;;;9.30;99.90;;;;;;5043985;28;20456;-77
2022/04/30 01:20:10;;;;;;;2.90;2.30;;;9.20;99.90;;;;;;5040512;28;20435;-77
2022/04/30 01:22:48;;;;;;;3.57;2.70;;;9.20;99.90;;;;;;5041319;28;20460;-77
2022/04/30 01:25:16;;;;;;;6.03;2.93;;;9.10;99.90;;;;;;5046935;28;20983;-77
2022/04/30 01:27:43;;;;;;;6.30;3.73;;;9.10;99.90;;;;;;5053045;28;20433;-77
2022/04/30 01:30:13;;;;;;;4.67;2.60;;;9.00;99.90;;;;;;5044101;28;20430;-77
2022/04/30 01:38:12;;;;;;;3.83;3.33;;;9.10;99.90;;;;;;5045763;28;20471;-77
2022/04/30 01:40:39;;;;;;;4.10;2.20;;;9.00;99.90;;;;;;5039003;28;20429;-77
2022/04/30 01:43:08;;;;;;;10.47;3.17;;;8.80;99.90;;;;;;5043326;28;20521;-77
2022/04/30 01:45:35;;;;;;;4.90;2.47;;;9.00;99.90;;;;;;5044163;28;20475;-78
2022/04/30 01:48:04;;;;;;;8.30;3.40;;;8.80;99.90;;;;;;5045315;28;20494;-77
2022/04/30 01:50:31;;;;;;;4.10;2.53;;;8.70;99.90;;;;;;5044268;28;20862;-76
2022/04/30 01:52:58;;;;;;;4.17;2.63;;;8.70;99.90;;;;;;5044102;28;20463;-76
2022/04/30 01:55:26;;;;;;;3.67;2.47;;;8.80;99.90;;;;;;5049212;28;20467;-76
2022/04/30 01:57:53;;;;;;;3.97;2.87;;;8.70;99.90;;;;;;5047122;28;20434;-77
2022/04/30 02:00:21;;;;;;;3.80;2.77;;;8.70;99.90;;;;;;5048253;28;20442;-76
2022/04/30 02:02:49;;;;;;;4.53;2.80;;;8.80;99.90;;;;;;5041080;28;20535;-76
2022/04/30 02:05:19;;;;;;;2.73;2.40;;;8.70;99.90;;;;;;5039048;28;20514;-76
2022/04/30 02:07:50;;;;;;;2.60;1.73;;;8.70;99.90;;;;;;5046711;28;20415;-76
2022/04/30 02:10:19;;;;;;;3.33;2.80;;;8.70;99.90;;;;;;5039901;28;20448;-76
2022/04/30 02:12:48;;;;;;;3.63;2.73;;;8.60;99.90;;;;;;5042121;28;20483;-76
2022/04/30 02:15:15;;;;;;;5.03;3.73;;;8.50;99.90;;;;;;5049703;28;20512;-76
2022/04/30 02:17:42;;;;;;;4.13;2.53;;;8.60;99.90;;;;;;5044778;28;20490;-76
2022/04/30 02:20:21;;;;;;;2.73;2.00;;;8.60;99.90;;;;;;5046437;28;20464;-76
2022/04/30 02:22:50;;;;;;;6.23;3.37;;;8.40;99.90;;;;;;5047233;28;20441;-77
2022/04/30 02:25:17;;;;;;;3.00;2.37;;;8.30;99.90;;;;;;5043233;28;20548;-76
2022/04/30 02:27:45;;;;;;;3.07;2.40;;;8.30;99.90;;;;;;5038815;28;20493;-76
2022/04/30 02:30:15;;;;;;;4.07;3.67;;;8.20;99.90;;;;;;5044113;28;20450;-76
2022/04/30 02:32:43;;;;;;;3.50;2.50;;;8.30;99.90;;;;;;5043076;28;20545;-76
2022/04/30 02:35:10;;;;;;;4.03;2.93;;;8.20;99.90;;;;;;5055841;28;20488;-76
2022/04/30 02:37:38;;;;;;;3.30;2.10;;;8.30;99.90;;;;;;5057701;28;20472;-76
2022/04/30 02:40:05;;;;;;;3.10;2.73;;;8.40;99.90;;;;;;5038436;28;20456;-76
2022/04/30 02:42:34;;;;;;;11.30;2.40;;;8.30;99.90;;;;;;5045695;28;20434;-76
2022/04/30 02:45:01;;;;;;;3.57;3.00;;;8.30;99.90;;;;;;5042317;28;20943;-76
2022/04/30 02:47:29;;;;;;;4.50;2.63;;;8.20;99.90;;;;;;5051278;28;20441;-76
2022/04/30 02:49:55;;;;;;;9.57;3.33;;;8.10;99.90;;;;;;5045906;28;20509;-76
2022/04/30 02:52:22;;;;;;;4.70;2.70;;;8.10;99.90;;;;;;5048028;28;20879;-76
2022/04/30 02:54:49;;;;;;;4.00;2.83;;;8.00;99.90;;;;;;5039741;28;20493;-76
2022/04/30 02:57:15;;;;;;;2.50;2.23;;;7.90;99.90;;;;;;5071678;22;20548;-70
2022/04/30 02:59:53;;;;;;;4.30;2.93;;;7.90;99.90;;;;;;5025343;28;20943;-70
2022/04/30 03:02:20;;;;;;;4.13;2.80;;;8.00;99.90;;;;;;5012640;28;20962;-71
2022/04/30 03:04:51;;;;;;;6.00;2.80;;;8.00;99.90;;;;;;5018407;28;20515;-70
2022/04/30 03:07:18;;;;;;;3.70;2.57;;;8.00;99.90;;;;;;5012279;28;20972;-71
2022/04/30 03:09:46;;;;;;;5.70;2.80;;;7.90;99.90;;;;;;5006451;28;20453;-70
2022/04/30 03:12:13;;;;;;;4.03;2.87;;;7.90;99.90;;;;;;5003856;28;20455;-70
2022/04/30 03:14:40;;;;;;;6.37;3.93;;;7.80;99.90;;;;;;5008245;28;21106;-70
2022/04/30 03:22:37;;;;;;;3.43;2.60;;;7.60;99.90;;;;;;5000523;28;21016;-69
2022/04/30 03:25:04;;;;;;;2.73;2.37;;;7.60;99.90;;;;;;5009345;28;20428;-70
2022/04/30 03:27:32;;;;;;;7.67;4.10;;;7.50;99.90;;;;;;5005900;28;20489;-70
2022/04/30 03:29:58;;;;;;;3.40;2.37;;;7.50;99.90;;;;;;5008873;28;20464;-70
2022/04/30 03:32:25;;;;;;;4.17;2.73;;;7.50;99.90;;;;;;5008592;28;20440;-70
2022/04/30 03:34:53;;;;;;;7.33;2.60;;;7.40;99.90;;;;;;5006946;28;20899;-70
2022/04/30 03:37:20;;;;;;;7.03;3.80;;;7.30;99.90;;;;;;5007819;28;20458;-69
2022/04/30 03:39:46;;;;;;;5.70;3.10;;;7.30;99.90;;;;;;4999233;28;20457;-69
2022/04/30 03:42:13;;;;;;;3.20;2.47;;;7.30;99.90;;;;;;5008474;28;20435;-69
2022/04/30 03:44:40;;;;;;;8.00;4.40;;;7.20;99.90;;;;;;5008706;28;20494;-71
2022/04/30 03:47:07;;;;;;;4.77;3.60;;;7.20;99.90;;;;;;5004544;28;20481;-70
2022/04/30 03:49:34;;;;;;;4.67;3.83;;;7.30;99.90;;;;;;5003038;28;20524;-70
2022/04/30 03:52:02;;;;;;;4.80;4.37;;;7.40;99.90;;;;;;4997057;28;20821;-70
2022/04/30 03:54:28;;;;;;;5.27;3.70;;;7.40;99.90;;;;;;4993897;28;20477;-70
2022/04/30 03:56:55;;;;;;;6.37;3.57;;;7.50;99.90;;;;;;5003249;28;20537;-70
2022/04/30 03:59:22;;;;;;;4.97;3.20;;;7.60;99.90;;;;;;5008718;28;20443;-71
2022/04/30 04:01:48;;;;;;;4.00;3.17;;;7.50;99.90;;;;;;5004355;28;20432;-70
2022/04/30 04:04:15;;;;;;;6.10;3.70;;;7.50;99.90;;;;;;5005898;28;20492;-70
2022/04/30 04:06:42;;;;;;;5.83;3.27;;;7.60;99.90;;;;;;5005227;28;20500;-71
2022/04/30 04:09:10;;;;;;;5.70;2.80;;;7.50;99.90;;;;;;5007190;28;20533;-71
2022/04/30 04:11:37;;;;;;;4.23;2.43;;;7.60;99.90;;;;;;5006246;28;20507;-71
2022/04/30 04:19:32;;;;;;;5.50;2.47;;;7.50;99.90;;;;;;5005979;28;20435;-70
2022/04/30 04:21:59;;;;;;;4.80;3.60;;;7.50;99.90;;;;;;5006034;28;20468;-70
2022/04/30 04:27:11;;;;;;;5.23;3.03;;;7.60;99.90;;;;;;5005672;28;20476;-70
2022/04/30 04:29:38;;;;;;;4.87;3.33;;;7.60;99.90;;;;;;5003256;28;20877;-70
2022/04/30 04:32:05;;;;;;;4.83;2.67;;;7.60;99.90;;;;;;5004229;28;20440;-71
2022/04/30 04:34:32;;;;;;;6.03;4.73;;;7.60;99.90;;;;;;5001432;28;20439;-71
2022/04/30 04:36:59;;;;;;;5.07;3.10;;;7.70;99.90;;;;;;5003361;28;20455;-70
2022/04/30 04:39:25;;;;;;;7.50;2.63;;;7.60;99.90;;;;;;5003417;28;20469;-70
2022/04/30 04:41:53;;;;;;;5.40;3.13;;;7.50;99.90;;;;;;4998351;28;20437;-70
2022/04/30 04:44:21;;;;;;;9.47;3.30;;;7.50;99.90;;;;;;5004537;28;20436;-70
2022/04/30 04:46:48;;;;;;;7.30;2.83;;;7.50;99.90;;;;;;5006406;28;20528;-70
2022/04/30 04:49:15;;;;;;;6.30;4.00;;;7.60;99.90;;;;;;5000709;28;20518;-71
2022/04/30 04:51:42;;;;;;;5.50;2.93;;;7.70;99.90;;;;;;5001573;28;20963;-70
2022/04/30 04:54:08;;;;;;;4.53;2.63;;;7.80;99.90;;;;;;5008481;28;20436;-70
2022/04/30 04:56:35;;;;;;;6.77;3.23;;;7.90;99.90;;;;;;5011651;28;21038;-70
2022/04/30 04:59:03;;;;;;;4.53;3.30;;;8.00;99.90;;;;;;5005252;28;20486;-71
2022/04/30 05:01:30;;;;;;;3.57;2.73;;;8.10;99.90;;;;;;4998730;28;20439;-70
2022/04/30 05:03:57;;;;;;;4.57;3.03;;;8.10;99.90;;;;;;5006995;28;20457;-70
2022/04/30 05:06:24;;;;;;;5.40;3.87;;;8.20;99.90;;;;;;5000830;28;20448;-70
2022/04/30 05:08:50;;;;;;;3.40;2.83;;;8.20;99.90;;;;;;5004962;28;20873;-69
2022/04/30 05:11:17;;;;;;;4.30;3.07;;;8.30;99.90;;;;;;5009664;28;20461;-70
2022/04/30 05:13:44;;;;;;;6.83;4.17;;;8.40;99.90;;;;;;5010632;28;20432;-70
2022/04/30 05:16:12;;;;;;;5.30;3.77;;;8.50;99.90;;;;;;5006672;28;20459;-70
2022/04/30 05:18:39;;;;;;;6.93;2.43;;;8.60;99.90;;;;;;5010337;28;20516;-70
2022/04/30 05:21:05;;;;;;;4.33;2.67;;;8.60;99.90;;;;;;5008277;28;20884;-70
2022/04/30 05:23:32;;;;;;;4.20;2.80;;;9.00;99.90;;;;;;5011192;28;20431;-70
2022/04/30 05:25:59;;;;;;;4.43;2.17;;;9.20;99.90;;;;;;5008285;28;20794;-70
2022/04/30 05:28:26;;;;;;;5.10;4.60;;;9.40;99.90;;;;;;5007487;28;20886;-71
2022/04/30 05:30:52;;;;;;;4.73;2.33;;;9.50;99.90;;;;;;5010865;28;20436;-70
2022/04/30 05:33:20;;;;;;;3.57;2.60;;;9.40;99.90;;;;;;5005988;28;20567;-70
2022/04/30 05:35:47;;;;;;;5.03;3.13;;;9.60;99.90;;;;;;5003306;28;20492;-71
2022/04/30 05:38:13;;;;;;;6.40;3.50;;;9.80;99.90;;;;;;5010085;28;20457;-70
2022/04/30 05:40:40;;;;;;;5.20;2.67;;;10.10;99.90;;;;;;5004396;28;20486;-70
2022/04/30 05:43:07;;;;;;;4.30;2.77;;;10.30;99.90;;;;;;5008194;28;20464;-69
2022/04/30 05:45:33;;;;;;;7.07;2.50;;;10.40;99.90;;;;;;5009203;28;20458;-69
2022/04/30 05:48:00;;;;;;;7.20;3.83;;;10.70;99.90;;;;;;5009411;28;20481;-70
2022/04/30 05:50:28;;;;;;;5.57;2.83;;;10.70;99.90;;;;;;5009263;28;20756;-69
2022/04/30 05:52:54;;;;;;;8.43;3.10;;;10.70;99.90;;;;;;5010538;28;20567;-69
2022/04/30 05:55:21;;;;;;;3.70;2.70;;;10.80;99.90;;;;;;5016294;28;20452;-69
2022/04/30 05:57:48;;;;;;;3.83;3.00;;;10.90;99.90;;;;;;5004779;28;21009;-69
2022/04/30 06:00:16;;;;;;;3.67;2.73;;;10.80;99.90;;;;;;5011041;28;20447;-70
2022/04/30 06:02:43;;;;;;;5.63;2.90;;;10.90;99.90;;;;;;5007563;28;20526;-69
2022/04/30 06:05:10;;;;;;;4.00;2.43;;;10.70;99.90;;;;;;5009136;28;20465;-69
2022/04/30 06:07:38;;;;;;;10.13;4.07;;;10.40;99.90;;;;;;5007276;28;20526;-70
2022/04/30 06:10:05;;;;;;;4.80;3.13;;;10.20;99.90;;;;;;5007673;28;20459;-70
2022/04/30 06:12:34;;;;;;;5.10;2.73;;;10.00;99.90;;;;;;5011577;28;20946;-69
2022/04/30 06:15:01;;;;;;;3.80;2.60;;;10.00;99.90;;;;;;5008348;28;20457;-69
2022/04/30 06:17:28;;;;;;;3.93;2.87;;;10.50;99.90;;;;;;5006573;28;21076;-69
2022/04/30 06:19:54;;;;;;;3.97;3.30;;;10.90;99.90;;;;;;5009402;28;20524;-69
2022/04/30 06:22:21;;;;;;;8.53;3.43;;;11.00;99.90;;;;;;5005339;28;20465;-69
2022/04/30 06:24:49;;;;;;;4.90;3.47;;;11.30;99.90;;;;;;5008095;28;20461;-70
2022/04/30 06:27:15;;;;;;;4.93;2.80;;;11.70;99.90;;;;;;5001875;28;20540;-69
2022/04/30 06:29:42;;;;;;;3.97;2.83;;;12.20;99.90;;;;;;5005543;28;21002;-69
2022/04/30 06:32:09;;;;;;;5.80;3.43;;;12.90;99.90;;;;;;5008788;28;20485;-69
2022/04/30 06:34:36;;;;;;;3.97;3.20;;;12.80;99.90;;;;;;5002415;28;20443;-69
2022/04/30 06:37:03;;;;;;;6.90;3.87;;;13.00;99.90;;;;;;5008198;28;20847;-69
2022/04/30 06:39:30;;;;;;;4.00;3.60;;;13.00;99.90;;;;;;4994833;28;20548;-69
2022/04/30 06:41:58;;;;;;;4.47;3.33;;;13.30;99.90;;;;;;5005674;28;20873;-69
2022/04/30 06:44:25;;;;;;;4.33;2.90;;;13.50;99.90;;;;;;5006732;28;20494;-69
2022/04/30 06:46:51;;;;;;;6.13;3.40;;;13.80;99.90;;;;;;5004034;28;20477;-69
2022/04/30 06:49:18;;;;;;;5.10;2.90;;;13.50;99.90;;;;;;5005297;28;20849;-70
2022/04/30 06:51:45;;;;;;;8.00;3.60;;;13.00;99.90;;;;;;5007215;28;20525;-69
2022/04/30 06:59:41;;;;;;;3.73;2.60;;;12.20;99.90;;;;;;5010592;28;20576;-71
2022/04/30 07:02:13;;;;;;;3.40;1.93;;;12.50;99.90;;;;;;4993507;28;20465;-70
2022/04/30 07:04:41;;;;;;;4.40;2.80;;;12.90;99.90;;;;;;4995594;28;20463;-70
2022/04/30 07:07:09;;;;;;;3.43;2.83;;;13.10;99.90;;;;;;4999764;28;20447;-70
2022/04/30 07:09:37;;;;;;;4.50;3.13;;;12.80;99.90;;;;;;5004556;28;20458;-69
2022/04/30 07:12:07;;;;;;;3.90;2.60;;;12.30;99.90;;;;;;4995454;28;20519;-71
2022/04/30 07:14:36;;;;;;;4.23;2.70;;;12.50;99.90;;;;;;5005094;28;20493;-70
2022/04/30 07:17:03;;;;;;;4.80;2.23;;;12.30;99.90;;;;;;5006090;28;20563;-69
2022/04/30 07:19:30;;;;;;;3.37;1.97;;;12.10;99.90;;;;;;5004601;28;20470;-70
2022/04/30 07:21:56;;;;;;;4.13;2.30;;;12.20;99.90;;;;;;5008754;28;20432;-70
2022/04/30 07:24:23;;;;;;;4.13;2.10;;;12.20;99.90;;;;;;5008887;28;20468;-70
2022/04/30 07:26:50;;;;;;;1.90;1.53;;;12.70;99.90;;;;;;4996410;28;20481;-70
2022/04/30 07:29:18;;;;;;;2.47;1.77;;;12.70;99.90;;;;;;5006517;28;20899;-70
2022/04/30 07:31:44;;;;;;;5.33;2.70;;;12.80;99.90;;;;;;5004076;28;20492;-70
2022/04/30 07:34:11;;;;;;;5.03;2.70;;;13.20;99.90;;;;;;5008367;28;20519;-70
2022/04/30 07:36:38;;;;;;;3.23;2.70;;;13.60;99.90;;;;;;5001290;28;21017;-70
2022/04/30 07:39:05;;;;;;;7.53;2.17;;;13.80;99.90;;;;;;5007042;28;20512;-70
2022/04/30 07:41:32;;;;;;;4.00;2.47;;;14.10;99.90;;;;;;5003587;28;20466;-70
2022/04/30 07:43:59;;;;;;;5.20;3.37;;;13.90;99.90;;;;;;5002141;28;20845;-70
2022/04/30 07:46:27;;;;;;;7.27;2.60;;;13.50;99.90;;;;;;4997085;28;20492;-69
2022/04/30 07:48:54;;;;;;;2.60;2.40;;;13.70;99.90;;;;;;5001112;28;20462;-69
2022/04/30 07:51:34;;;;;;;3.30;1.83;;;14.30;99.90;;;;;;4997562;28;20524;-70
2022/04/30 07:54:02;;;;;;;4.27;2.50;;;15.30;99.90;;;;;;5004526;28;20465;-70
2022/04/30 07:56:29;;;;;;;3.10;2.03;;;15.00;99.90;;;;;;4989506;28;20485;-71
2022/04/30 07:58:55;;;;;;;3.40;2.03;;;16.00;99.90;;;;;;5007842;28;20566;-70
2022/04/30 08:01:22;;;;;;;5.70;2.70;;;16.30;99.90;;;;;;5001203;28;20457;-70
2022/04/30 08:03:50;;;;;;;2.60;1.87;;;16.70;99.90;;;;;;4999496;28;20466;-70
2022/04/30 08:06:17;;;;;;;3.10;2.43;;;16.60;99.90;;;;;;5006925;28;20465;-70
2022/04/30 08:08:44;;;;;;;2.87;2.23;;;15.70;99.90;;;;;;5003526;28;20466;-70
2022/04/30 08:11:12;;;;;;;8.30;3.20;;;16.60;99.90;;;;;;5008536;28;20717;-70
2022/04/30 08:13:39;;;;;;;2.83;2.53;;;17.60;99.90;;;;;;4996680;28;20458;-70
2022/04/30 08:16:09;;;;;;;7.70;2.87;;;16.60;99.90;;;;;;5003259;28;20543;-70
2022/04/30 08:18:36;;;;;;;3.10;2.27;;;16.10;99.90;;;;;;5003374;28;20939;-70
2022/04/30 08:21:05;;;;;;;4.50;2.50;;;15.90;99.90;;;;;;5002817;28;20454;-70
2022/04/30 08:23:33;;;;;;;4.70;2.87;;;15.20;99.90;;;;;;5009222;28;20511;-70
2022/04/30 08:25:59;;;;;;;2.87;2.20;;;15.50;99.90;;;;;;5006807;28;20489;-70
2022/04/30 08:28:26;;;;;;;4.97;2.77;;;17.00;99.90;;;;;;5002456;28;20887;-71
2022/04/30 08:30:53;;;;;;;3.80;2.37;;;18.10;99.90;;;;;;5010275;28;21096;-70
2022/04/30 08:33:19;;;;;;;2.40;1.87;;;18.40;99.90;;;;;;5005678;28;20480;-70
2022/04/30 08:35:46;;;;;;;4.40;2.40;;;18.70;98.20;;;;;;4997875;28;20506;-70
2022/04/30 08:38:14;;;;;;;4.20;2.40;;;18.50;94.60;;;;;;5003684;28;20513;-70
2022/04/30 08:40:43;;;;;;;4.23;2.80;;;17.60;96.80;;;;;;5002778;28;20540;-70
2022/04/30 08:43:11;;;;;;;3.10;2.60;;;17.90;97.10;;;;;;5002687;28;20463;-70
2022/04/30 08:45:40;;;;;;;3.77;2.00;;;18.40;94.50;;;;;;5005882;28;20474;-71
2022/04/30 08:48:08;;;;;;;2.60;1.83;;;18.70;92.90;;;;;;5007656;28;20849;-70
2022/04/30 08:50:36;;;;;;;2.50;1.90;;;18.90;91.60;;;;;;5004016;28;20470;-70
2022/04/30 08:53:03;;;;;;;6.20;2.80;;;19.50;90.30;;;;;;5003387;28;20461;-71
2022/04/30 08:55:31;;;;;;;3.93;2.10;;;19.20;91.90;;;;;;4999167;28;20471;-70
2022/04/30 08:57:58;;;;;;;7.53;2.20;;;19.30;91.80;;;;;;5057669;22;20531;-76
2022/04/30 09:00:25;;;;;;;2.80;2.30;;;20.10;90.00;;;;;;5018133;28;20465;-74
2022/04/30 09:02:52;;;;;;;2.40;2.07;;;19.30;88.20;;;;;;5021618;28;20460;-76
2022/04/30 09:05:19;;;;;;;4.27;2.73;;;18.10;90.00;;;;;;5015000;28;20961;-74
2022/04/30 09:07:54;;;;;;;3.23;2.40;;;18.10;90.60;;;;;;5014646;28;20489;-75
2022/04/30 09:10:23;;;;;;;5.00;2.63;;;19.00;90.60;;;;;;5018996;28;20461;-77
2022/04/30 09:12:51;;;;;;;5.50;2.97;;;19.30;89.90;;;;;;5014351;28;20525;-75
2022/04/30 09:15:19;;;;;;;4.50;3.20;;;19.70;89.20;;;;;;5021201;28;20493;-72
2022/04/30 09:17:56;;;;;;;4.13;2.57;;;18.80;89.20;;;;;;5024198;28;20485;-76
2022/04/30 09:20:23;;;;;;;2.90;2.30;;;17.50;91.10;;;;;;5023384;28;20460;-76
2022/04/30 09:22:49;;;;;;;4.43;2.77;;;16.70;91.60;;;;;;5023945;28;20486;-74
2022/04/30 09:25:16;;;;;;;3.20;2.47;;;15.90;92.50;;;;;;5025539;28;20848;-75
2022/04/30 09:27:44;;;;;;;3.87;2.10;;;16.00;94.60;;;;;;5017355;28;21023;-74
2022/04/30 09:30:17;;;;;;;2.30;2.10;;;16.50;92.50;;;;;;5024643;28;20550;-75
2022/04/30 09:32:44;;;;;;;5.80;3.00;;;16.50;93.00;;;;;;5020370;28;20465;-73
2022/04/30 09:38:03;;;;;;;5.40;2.40;;;17.80;90.80;;;;;;5030147;28;20601;-76
2022/04/30 09:40:30;;;;;;;3.97;2.57;;;18.60;87.90;;;;;;5024033;28;20561;-76
2022/04/30 09:42:57;;;;;;;3.33;1.97;;;19.10;86.00;;;;;;5020311;28;20964;-77
2022/04/30 09:45:31;;;;;;;3.50;2.00;;;18.00;85.60;;;;;;5027092;28;20481;-76
2022/04/30 09:47:59;;;;;;;3.37;3.07;;;18.50;89.80;;;;;;5029408;28;20480;-77
2022/04/30 09:55:59;;;;;;;10.77;3.17;;;20.30;83.90;;;;;;5023144;28;20464;-76
2022/04/30 09:58:27;;;;;;;3.13;2.83;;;20.70;80.40;;;;;;5027072;28;20499;-75
2022/04/30 10:00:57;;;;;;;12.03;2.63;;;21.00;78.20;;;;;;5022336;28;20531;-75
2022/04/30 10:03:28;;;;;;;3.40;2.30;;;21.30;74.40;;;;;;5020858;28;20492;-77
2022/04/30 10:06:01;;;;;;;4.17;2.43;;;19.80;74.30;;;;;;5024663;28;20458;-77
2022/04/30 10:08:30;;;;;;;4.43;2.43;;;18.80;76.70;;;;;;5022182;28;20477;-76
2022/04/30 10:11:17;;;;;;;5.90;2.70;;;19.70;79.20;;;;;;5024001;28;20469;-76
2022/04/30 10:14:06;;;;;;;4.93;3.00;;;21.00;75.70;;;;;;5030369;28;20466;-77
2022/04/30 10:16:35;;;;;;;3.77;3.10;;;20.70;77.10;;;;;;5025766;28;20498;-76
2022/04/30 10:19:10;;;;;;;3.00;2.30;;;20.60;76.50;;;;;;5027802;28;20958;-76
2022/04/30 10:21:38;;;;;;;5.37;2.90;;;20.90;75.40;;;;;;5029182;28;20470;-76
2022/04/30 10:24:06;;;;;;;2.70;2.30;;;20.70;73.00;;;;;;5027549;28;20597;-76
2022/04/30 10:26:33;;;;;;;3.00;1.87;;;19.80;72.70;;;;;;5020941;28;20569;-76
2022/04/30 10:29:01;;;;;;;6.13;2.63;;;19.70;77.10;;;;;;5025432;28;20592;-77
2022/04/30 10:31:28;;;;;;;2.90;2.60;;;20.10;74.10;;;;;;5026923;28;20462;-77
2022/04/30 10:33:55;;;;;;;3.60;2.63;;;21.40;70.80;;;;;;5025218;28;20475;-76
2022/04/30 10:36:23;;;;;;;3.73;3.43;;;22.10;73.60;;;;;;5023028;28;20463;-76
2022/04/30 10:38:59;;;;;;;2.90;2.47;;;23.00;71.70;;;;;;5024536;28;20745;-77
2022/04/30 10:41:26;;;;;;;4.07;3.67;;;22.50;69.80;;;;;;5018110;28;20453;-77
2022/04/30 10:44:01;;;;;;;3.03;2.43;;;22.30;67.10;;;;;;5016674;28;20458;-75
2022/04/30 10:46:36;;;;;;;9.23;3.10;;;21.30;68.30;;;;;;5019976;28;20511;-74
2022/04/30 10:49:06;;;;;;;5.63;3.10;;;20.20;68.50;;;;;;5025561;28;20567;-75
2022/04/30 10:51:38;;;;;;;3.80;2.80;;;19.80;73.10;;;;;;5026583;28;20466;-75
2022/04/30 10:54:09;;;;;;;6.30;2.60;;;21.00;72.10;;;;;;5022195;28;20464;-75
2022/04/30 10:56:36;;;;;;;3.40;2.97;;;22.10;66.00;;;;;;5028639;28;20481;-74
2022/04/30 10:59:03;;;;;;;4.30;3.20;;;22.90;67.30;;;;;;5024547;28;20980;-75
2022/04/30 11:01:29;;;;;;;2.50;2.30;;;23.60;66.10;;;;;;5018770;28;20527;-74
2022/04/30 11:03:56;;;;;;;3.47;3.13;;;24.70;64.00;;;;;;5029063;28;20523;-74
2022/04/30 11:06:29;;;;;;;8.40;3.80;;;24.10;64.40;;;;;;5032012;28;20460;-74
2022/04/30 11:09:00;;;;;;;4.83;3.87;;;22.40;64.00;;;;;;5030205;28;20453;-75
2022/04/30 11:11:29;;;;;;;3.20;2.80;;;21.50;65.50;;;;;;5015986;28;20962;-76
2022/04/30 11:13:59;;;;;;;4.20;3.17;;;20.40;69.60;;;;;;5023772;28;20455;-73
2022/04/30 11:16:30;;;;;;;3.13;2.60;;;19.40;67.30;;;;;;5031467;28;20456;-74
2022/04/30 11:19:03;;;;;;;6.00;3.40;;;18.60;68.70;;;;;;5010490;28;20484;-76
2022/04/30 11:21:32;;;;;;;5.80;4.03;;;19.70;71.10;;;;;;5025624;28;20572;-75
2022/04/30 11:23:59;;;;;;;2.90;2.57;;;21.60;70.70;;;;;;5025086;28;20458;-76
2022/04/30 11:26:29;;;;;;;3.40;2.20;;;23.10;64.60;;;;;;5021487;28;20473;-76
2022/04/30 11:28:56;;;;;;;2.67;2.40;;;23.90;62.70;;;;;;5019729;28;20462;-75
2022/04/30 11:31:23;;;;;;;5.40;3.73;;;24.30;60.70;;;;;;5020011;28;20525;-75
2022/04/30 11:33:50;;;;;;;3.40;3.10;;;22.80;59.10;;;;;;5023053;28;20458;-75
2022/04/30 11:36:17;;;;;;;3.50;2.80;;;21.60;61.00;;;;;;5030403;28;20835;-75
2022/04/30 11:38:52;;;;;;;4.10;3.33;;;20.80;61.40;;;;;;5021813;28;20489;-75
2022/04/30 11:41:19;;;;;;;3.67;3.20;;;20.70;63.40;;;;;;5025121;28;20478;-75
2022/04/30 11:43:46;;;;;;;3.10;2.70;;;21.90;62.50;;;;;;5033443;28;20815;-76
2022/04/30 11:46:15;;;;;;;2.63;2.40;;;21.60;62.60;;;;;;5020235;28;20469;-76
2022/04/30 11:48:41;;;;;;;2.63;2.43;;;21.70;63.00;;;;;;5018219;28;20458;-75
2022/04/30 11:51:08;;;;;;;5.77;3.23;;;22.00;63.40;;;;;;5019134;28;20520;-76
2022/04/30 11:53:36;;;;;;;3.77;2.80;;;22.60;60.30;;;;;;5022110;28;20457;-75
2022/04/30 11:56:05;;;;;;;3.30;2.00;;;22.00;58.80;;;;;;5017528;28;20468;-74
2022/04/30 11:58:43;;;;;;;2.80;2.20;;;21.60;58.90;;;;;;5020588;28;20491;-76
2022/04/30 12:01:26;;;;;;;2.37;2.17;;;22.10;56.50;;;;;;5012872;28;20462;-75
2022/04/30 12:03:58;;;;;;;3.17;2.40;;;22.50;57.10;;;;;;5016010;28;20462;-76
2022/04/30 12:06:26;;;;;;;3.80;1.90;;;23.30;55.90;;;;;;5019367;28;20510;-76
2022/04/30 12:08:53;;;;;;;3.20;2.73;;;23.70;54.30;;;;;;5025303;28;20490;-76
2022/04/30 12:11:21;;;;;;;8.90;2.80;;;24.40;55.80;;;;;;5016802;28;20469;-76
2022/04/30 12:14:01;;;;;;;2.53;2.17;;;25.20;54.80;;;;;;5021476;28;20500;-75
2022/04/30 12:16:36;;;;;;;2.97;1.60;;;25.20;53.80;;;;;;5020248;28;20505;-76
2022/04/30 12:24:42;;;;;;;3.40;2.63;;;21.10;55.10;;;;;;5018846;28;20455;-75
2022/04/30 12:27:11;;;;;;;5.10;2.47;;;21.60;56.30;;;;;;5025764;28;20612;-75
2022/04/30 12:29:38;;;;;;;3.30;3.00;;;22.90;56.30;;;;;;5022479;28;20470;-76
2022/04/30 12:32:06;;;;;;;3.70;2.40;;;23.70;55.70;;;;;;5026201;28;20469;-76
2022/04/30 12:34:38;;;;;;;3.87;2.40;;;24.30;56.00;;;;;;5026927;28;20471;-75
2022/04/30 12:37:05;;;;;;;4.33;3.10;;;24.30;53.70;;;;;;5019476;28;20496;-75
2022/04/30 12:39:32;;;;;;;7.10;3.10;;;25.10;54.90;;;;;;5021332;28;20849;-74
2022/04/30 12:41:58;;;;;;;3.50;2.13;;;24.10;53.80;;;;;;5023939;28;20457;-74
2022/04/30 12:44:27;;;;;;;4.30;2.17;;;21.80;55.00;;;;;;5022187;28;20462;-74
2022/04/30 12:46:55;;;;;;;3.20;2.90;;;20.90;54.20;;;;;;5029269;28;20533;-73
2022/04/30 12:49:22;;;;;;;6.63;3.00;;;21.00;55.60;;;;;;5022429;28;20488;-74
2022/04/30 12:51:49;;;;;;;4.17;3.20;;;22.70;57.40;;;;;;5024964;28;20467;-75
2022/04/30 12:54:16;;;;;;;4.67;3.40;;;24.80;55.90;;;;;;5018183;28;20493;-76
2022/04/30 12:56:44;;;;;;;3.67;2.37;;;25.30;53.70;;;;;;5023544;28;20484;-75
2022/04/30 12:59:11;;;;;;;2.90;2.70;;;25.90;53.50;;;;;;5019124;28;20886;-75
2022/04/30 13:01:40;;;;;;;2.40;2.20;;;26.20;50.90;;;;;;5018077;28;20466;-75
2022/04/30 13:04:07;;;;;;;4.30;2.90;;;24.10;52.20;;;;;;5018478;28;20638;-74
2022/04/30 13:06:35;;;;;;;2.73;2.30;;;22.10;54.60;;;;;;5021191;28;20548;-75
2022/04/30 13:14:30;;;;;;;3.67;3.30;;;19.30;58.30;;;;;;5020520;28;20974;-76
2022/04/30 13:16:58;;;;;;;4.07;2.87;;;19.80;59.70;;;;;;5022535;28;20994;-76
2022/04/30 13:19:25;;;;;;;4.20;2.70;;;19.80;58.30;;;;;;5020839;28;20964;-75
2022/04/30 13:21:52;;;;;;;3.10;2.43;;;19.60;58.10;;;;;;5019515;28;20515;-74
2022/04/30 13:24:19;;;;;;;5.67;3.80;;;19.50;56.80;;;;;;5025895;28;20902;-76
2022/04/30 13:26:45;;;;;;;3.83;2.73;;;19.40;57.90;;;;;;5021496;28;20977;-74
2022/04/30 13:29:12;;;;;;;3.50;2.50;;;19.00;57.30;;;;;;5024669;28;20462;-74
2022/04/30 13:31:39;;;;;;;3.77;2.77;;;18.70;57.80;;;;;;5023298;28;20888;-76
2022/04/30 13:34:08;;;;;;;3.20;2.50;;;18.90;58.30;;;;;;5024403;28;20461;-75
2022/04/30 13:36:35;;;;;;;3.47;2.40;;;18.80;58.00;;;;;;5023668;28;20492;-74
2022/04/30 13:39:02;;;;;;;4.40;3.13;;;18.50;59.90;;;;;;5015380;28;20480;-74